sensor_id;sensor_type;location;lat;lon;timestamp;P1;durP1;ratioP1;P2;durP2;ratioP2
38465;SDS011;24244;51.950;5.902;2023-04-12T00:00:24;2.20;;;0.73;;
38465;SDS011;24244;51.950;5.902;2023-04-12T00:02:51;3.40;;;1.00;;
38465;SDS011;24244;51.950;5.902;2023-04-12T00:05:21;2.90;;;0.70;;
38465;SDS011;24244;51.950;5.902;2023-04-12T00:07:52;3.03;;;1.02;;
38465;SDS011;24244;51.950;5.902;2023-04-12T00:10:20;2.03;;;0.50;;
38465;SDS011;24244;51.950;5.902;2023-04-12T00:12:47;3.35;;;0.70;;
38465;SDS011;24244;51.950;5.902;2023-04-12T00:15:14;4.05;;;1.23;;
38465;SDS011;24244;51.950;5.902;2023-04-12T00:17:42;5.57;;;1.00;;
38465;SDS011;24244;51.950;5.902;2023-04-12T00:20:13;2.85;;;0.93;;
38465;SDS011;24244;51.950;5.902;2023-04-12T00:22:44;1.77;;;0.60;;
38465;SDS011;24244;51.950;5.902;2023-04-12T00:25:11;2.20;;;0.68;;
38465;SDS011;24244;51.950;5.902;2023-04-12T00:27:38;4.70;;;1.08;;
38465;SDS011;24244;51.950;5.902;2023-04-12T00:30:05;2.83;;;0.47;;
38465;SDS011;24244;51.950;5.902;2023-04-12T00:32:34;3.00;;;1.02;;
38465;SDS011;24244;51.950;5.902;2023-04-12T00:35:01;3.80;;;1.23;;
38465;SDS011;24244;51.950;5.902;2023-04-12T00:37:28;3.05;;;0.75;;
38465;SDS011;24244;51.950;5.902;2023-04-12T00:39:56;2.97;;;1.30;;
38465;SDS011;24244;51.950;5.902;2023-04-12T00:42:23;3.60;;;1.20;;
38465;SDS011;24244;51.950;5.902;2023-04-12T00:44:50;2.22;;;1.00;;
38465;SDS011;24244;51.950;5.902;2023-04-12T00:47:17;2.85;;;1.20;;
38465;SDS011;24244;51.950;5.902;2023-04-12T00:49:43;1.45;;;0.90;;
38465;SDS011;24244;51.950;5.902;2023-04-12T00:52:11;1.70;;;0.50;;
38465;SDS011;24244;51.950;5.902;2023-04-12T00:54:39;2.15;;;0.77;;
38465;SDS011;24244;51.950;5.902;2023-04-12T00:57:08;1.48;;;0.70;;
38465;SDS011;24244;51.950;5.902;2023-04-12T00:59:36;1.20;;;0.40;;
38465;SDS011;24244;51.950;5.902;2023-04-12T01:02:03;2.38;;;0.90;;
38465;SDS011;24244;51.950;5.902;2023-04-12T01:04:30;1.80;;;0.35;;
38465;SDS011;24244;51.950;5.902;2023-04-12T01:07:01;1.95;;;0.95;;
38465;SDS011;24244;51.950;5.902;2023-04-12T01:09:42;1.92;;;0.50;;
38465;SDS011;24244;51.950;5.902;2023-04-12T01:12:23;3.53;;;0.60;;
38465;SDS011;24244;51.950;5.902;2023-04-12T01:14:57;2.13;;;0.60;;
38465;SDS011;24244;51.950;5.902;2023-04-12T01:17:33;4.68;;;0.70;;
38465;SDS011;24244;51.950;5.902;2023-04-12T01:20:18;4.25;;;1.00;;
38465;SDS011;24244;51.950;5.902;2023-04-12T01:23:03;1.10;;;0.52;;
38465;SDS011;24244;51.950;5.902;2023-04-12T01:25:44;3.80;;;0.90;;
38465;SDS011;24244;51.950;5.902;2023-04-12T01:28:28;2.05;;;1.00;;
38465;SDS011;24244;51.950;5.902;2023-04-12T01:31:03;4.28;;;1.33;;
38465;SDS011;24244;51.950;5.902;2023-04-12T01:33:35;1.77;;;1.10;;
38465;SDS011;24244;51.950;5.902;2023-04-12T01:36:06;1.63;;;0.68;;
38465;SDS011;24244;51.950;5.902;2023-04-12T01:38:37;3.13;;;0.68;;
38465;SDS011;24244;51.950;5.902;2023-04-12T01:41:06;2.78;;;0.80;;
38465;SDS011;24244;51.950;5.902;2023-04-12T01:43:40;2.05;;;0.30;;
38465;SDS011;24244;51.950;5.902;2023-04-12T01:46:08;2.58;;;0.45;;
38465;SDS011;24244;51.950;5.902;2023-04-12T01:48:37;2.08;;;0.43;;
38465;SDS011;24244;51.950;5.902;2023-04-12T01:51:05;2.65;;;0.73;;
38465;SDS011;24244;51.950;5.902;2023-04-12T01:53:39;3.55;;;0.70;;
38465;SDS011;24244;51.950;5.902;2023-04-12T01:56:16;2.58;;;1.00;;
38465;SDS011;24244;51.950;5.902;2023-04-12T01:58:47;3.13;;;0.70;;
38465;SDS011;24244;51.950;5.902;2023-04-12T02:01:17;2.47;;;0.60;;
38465;SDS011;24244;51.950;5.902;2023-04-12T02:03:44;3.08;;;0.80;;
38465;SDS011;24244;51.950;5.902;2023-04-12T02:06:15;1.65;;;0.88;;
38465;SDS011;24244;51.950;5.902;2023-04-12T02:08:47;3.70;;;0.90;;
38465;SDS011;24244;51.950;5.902;2023-04-12T02:11:15;2.45;;;1.08;;
38465;SDS011;24244;51.950;5.902;2023-04-12T02:13:41;2.95;;;0.98;;
38465;SDS011;24244;51.950;5.902;2023-04-12T02:16:11;5.90;;;0.73;;
38465;SDS011;24244;51.950;5.902;2023-04-12T02:18:39;2.78;;;0.60;;
38465;SDS011;24244;51.950;5.902;2023-04-12T02:21:07;2.60;;;0.80;;
38465;SDS011;24244;51.950;5.902;2023-04-12T02:23:34;2.22;;;0.85;;
38465;SDS011;24244;51.950;5.902;2023-04-12T02:26:01;1.75;;;0.57;;
38465;SDS011;24244;51.950;5.902;2023-04-12T02:28:29;2.13;;;0.90;;
38465;SDS011;24244;51.950;5.902;2023-04-12T02:30:56;5.38;;;1.10;;
38465;SDS011;24244;51.950;5.902;2023-04-12T02:33:24;3.55;;;1.02;;
38465;SDS011;24244;51.950;5.902;2023-04-12T02:35:53;1.75;;;0.40;;
38465;SDS011;24244;51.950;5.902;2023-04-12T02:38:23;3.08;;;0.60;;
38465;SDS011;24244;51.950;5.902;2023-04-12T02:40:50;3.55;;;0.90;;
38465;SDS011;24244;51.950;5.902;2023-04-12T02:43:17;5.78;;;0.70;;
38465;SDS011;24244;51.950;5.902;2023-04-12T02:45:43;1.67;;;0.80;;
38465;SDS011;24244;51.950;5.902;2023-04-12T02:48:12;1.55;;;0.40;;
38465;SDS011;24244;51.950;5.902;2023-04-12T02:50:40;1.50;;;0.85;;
38465;SDS011;24244;51.950;5.902;2023-04-12T02:53:07;2.08;;;0.60;;
38465;SDS011;24244;51.950;5.902;2023-04-12T02:55:36;1.52;;;0.60;;
38465;SDS011;24244;51.950;5.902;2023-04-12T02:58:04;1.92;;;0.80;;
38465;SDS011;24244;51.950;5.902;2023-04-12T03:00:31;2.08;;;0.77;;
38465;SDS011;24244;51.950;5.902;2023-04-12T03:02:58;2.25;;;0.50;;
38465;SDS011;24244;51.950;5.902;2023-04-12T03:05:29;2.55;;;0.70;;
38465;SDS011;24244;51.950;5.902;2023-04-12T03:07:57;2.45;;;1.05;;
38465;SDS011;24244;51.950;5.902;2023-04-12T03:10:24;1.10;;;0.70;;
38465;SDS011;24244;51.950;5.902;2023-04-12T03:12:51;1.67;;;0.60;;
38465;SDS011;24244;51.950;5.902;2023-04-12T03:15:17;1.67;;;0.68;;
38465;SDS011;24244;51.950;5.902;2023-04-12T03:17:45;3.58;;;0.68;;
38465;SDS011;24244;51.950;5.902;2023-04-12T03:20:11;1.40;;;0.70;;
38465;SDS011;24244;51.950;5.902;2023-04-12T03:22:39;2.80;;;0.70;;
38465;SDS011;24244;51.950;5.902;2023-04-12T03:25:09;1.30;;;0.50;;
38465;SDS011;24244;51.950;5.902;2023-04-12T03:27:37;2.00;;;0.63;;
38465;SDS011;24244;51.950;5.902;2023-04-12T03:30:05;1.13;;;0.30;;
38465;SDS011;24244;51.950;5.902;2023-04-12T03:32:32;2.15;;;0.57;;
38465;SDS011;24244;51.950;5.902;2023-04-12T03:34:59;1.55;;;0.70;;
38465;SDS011;24244;51.950;5.902;2023-04-12T03:37:26;1.60;;;0.80;;
38465;SDS011;24244;51.950;5.902;2023-04-12T03:39:53;2.83;;;0.75;;
38465;SDS011;24244;51.950;5.902;2023-04-12T03:42:25;2.50;;;1.00;;
38465;SDS011;24244;51.950;5.902;2023-04-12T03:44:59;2.72;;;0.90;;
38465;SDS011;24244;51.950;5.902;2023-04-12T03:47:26;2.20;;;0.70;;
38465;SDS011;24244;51.950;5.902;2023-04-12T03:49:53;2.85;;;0.60;;
38465;SDS011;24244;51.950;5.902;2023-04-12T03:52:37;0.90;;;0.30;;
38465;SDS011;24244;51.950;5.902;2023-04-12T03:55:04;2.13;;;0.45;;
38465;SDS011;24244;51.950;5.902;2023-04-12T03:57:34;3.40;;;0.43;;
38465;SDS011;24244;51.950;5.902;2023-04-12T04:00:01;1.75;;;1.10;;
38465;SDS011;24244;51.950;5.902;2023-04-12T04:02:30;1.90;;;0.50;;
38465;SDS011;24244;51.950;5.902;2023-04-12T04:04:57;2.20;;;0.68;;
38465;SDS011;24244;51.950;5.902;2023-04-12T04:07:24;1.70;;;0.50;;
38465;SDS011;24244;51.950;5.902;2023-04-12T04:09:52;1.90;;;0.90;;
38465;SDS011;24244;51.950;5.902;2023-04-12T04:12:19;2.88;;;0.40;;
38465;SDS011;24244;51.950;5.902;2023-04-12T04:14:48;1.52;;;0.73;;
38465;SDS011;24244;51.950;5.902;2023-04-12T04:17:15;2.60;;;1.10;;
38465;SDS011;24244;51.950;5.902;2023-04-12T04:19:41;1.95;;;0.68;;
38465;SDS011;24244;51.950;5.902;2023-04-12T04:22:08;2.80;;;1.00;;
38465;SDS011;24244;51.950;5.902;2023-04-12T04:24:35;2.08;;;0.70;;
38465;SDS011;24244;51.950;5.902;2023-04-12T04:27:04;1.25;;;0.57;;
38465;SDS011;24244;51.950;5.902;2023-04-12T04:29:31;2.10;;;0.47;;
38465;SDS011;24244;51.950;5.902;2023-04-12T04:32:00;0.95;;;0.32;;
38465;SDS011;24244;51.950;5.902;2023-04-12T04:34:27;1.33;;;0.50;;
38465;SDS011;24244;51.950;5.902;2023-04-12T04:36:54;1.35;;;0.50;;
38465;SDS011;24244;51.950;5.902;2023-04-12T04:39:22;1.50;;;0.43;;
38465;SDS011;24244;51.950;5.902;2023-04-12T04:41:50;1.95;;;0.40;;
38465;SDS011;24244;51.950;5.902;2023-04-12T04:44:26;2.47;;;0.95;;
38465;SDS011;24244;51.950;5.902;2023-04-12T04:46:53;1.42;;;0.70;;
38465;SDS011;24244;51.950;5.902;2023-04-12T04:49:21;2.30;;;0.70;;
38465;SDS011;24244;51.950;5.902;2023-04-12T04:51:48;2.05;;;0.50;;
38465;SDS011;24244;51.950;5.902;2023-04-12T04:54:16;1.92;;;0.85;;
38465;SDS011;24244;51.950;5.902;2023-04-12T04:56:44;1.88;;;0.50;;
38465;SDS011;24244;51.950;5.902;2023-04-12T04:59:10;3.03;;;0.50;;
38465;SDS011;24244;51.950;5.902;2023-04-12T05:01:37;1.83;;;1.15;;
38465;SDS011;24244;51.950;5.902;2023-04-12T05:04:04;1.52;;;0.80;;
38465;SDS011;24244;51.950;5.902;2023-04-12T05:06:33;0.70;;;0.30;;
38465;SDS011;24244;51.950;5.902;2023-04-12T05:09:01;2.05;;;0.88;;
38465;SDS011;24244;51.950;5.902;2023-04-12T05:11:29;1.80;;;1.13;;
38465;SDS011;24244;51.950;5.902;2023-04-12T05:13:59;1.50;;;0.82;;
38465;SDS011;24244;51.950;5.902;2023-04-12T05:16:25;1.05;;;0.40;;
38465;SDS011;24244;51.950;5.902;2023-04-12T05:18:53;0.90;;;0.35;;
38465;SDS011;24244;51.950;5.902;2023-04-12T05:21:21;1.10;;;0.70;;
38465;SDS011;24244;51.950;5.902;2023-04-12T05:23:52;3.88;;;0.93;;
38465;SDS011;24244;51.950;5.902;2023-04-12T05:26:20;2.63;;;1.00;;
38465;SDS011;24244;51.950;5.902;2023-04-12T05:28:47;1.73;;;0.95;;
38465;SDS011;24244;51.950;5.902;2023-04-12T05:31:14;1.35;;;0.40;;
38465;SDS011;24244;51.950;5.902;2023-04-12T05:33:41;1.20;;;0.52;;
38465;SDS011;24244;51.950;5.902;2023-04-12T05:36:08;2.38;;;0.50;;
38465;SDS011;24244;51.950;5.902;2023-04-12T05:38:35;2.17;;;0.80;;
38465;SDS011;24244;51.950;5.902;2023-04-12T05:41:04;2.17;;;0.68;;
38465;SDS011;24244;51.950;5.902;2023-04-12T05:43:31;2.15;;;0.82;;
38465;SDS011;24244;51.950;5.902;2023-04-12T05:46:01;1.80;;;0.45;;
38465;SDS011;24244;51.950;5.902;2023-04-12T05:48:29;1.63;;;0.50;;
38465;SDS011;24244;51.950;5.902;2023-04-12T05:50:56;1.80;;;0.90;;
38465;SDS011;24244;51.950;5.902;2023-04-12T05:53:22;1.45;;;0.55;;
38465;SDS011;24244;51.950;5.902;2023-04-12T05:55:49;1.83;;;0.63;;
38465;SDS011;24244;51.950;5.902;2023-04-12T05:58:18;1.77;;;0.52;;
38465;SDS011;24244;51.950;5.902;2023-04-12T06:00:45;2.50;;;0.50;;
38465;SDS011;24244;51.950;5.902;2023-04-12T06:03:12;0.95;;;0.40;;
38465;SDS011;24244;51.950;5.902;2023-04-12T06:05:39;1.10;;;0.70;;
38465;SDS011;24244;51.950;5.902;2023-04-12T06:08:06;1.83;;;1.27;;
38465;SDS011;24244;51.950;5.902;2023-04-12T06:10:33;1.08;;;0.38;;
38465;SDS011;24244;51.950;5.902;2023-04-12T06:13:00;1.20;;;0.70;;
38465;SDS011;24244;51.950;5.902;2023-04-12T06:15:28;0.70;;;0.30;;
38465;SDS011;24244;51.950;5.902;2023-04-12T06:17:59;1.55;;;0.40;;
38465;SDS011;24244;51.950;5.902;2023-04-12T06:20:26;1.52;;;0.50;;
38465;SDS011;24244;51.950;5.902;2023-04-12T06:22:53;2.22;;;0.45;;
38465;SDS011;24244;51.950;5.902;2023-04-12T06:25:20;1.35;;;0.75;;
38465;SDS011;24244;51.950;5.902;2023-04-12T06:27:48;2.20;;;0.47;;
38465;SDS011;24244;51.950;5.902;2023-04-12T06:30:17;1.83;;;0.50;;
38465;SDS011;24244;51.950;5.902;2023-04-12T06:32:46;2.17;;;0.90;;
38465;SDS011;24244;51.950;5.902;2023-04-12T06:35:14;1.60;;;0.40;;
38465;SDS011;24244;51.950;5.902;2023-04-12T06:37:42;1.25;;;0.90;;
38465;SDS011;24244;51.950;5.902;2023-04-12T06:40:09;0.88;;;0.32;;
38465;SDS011;24244;51.950;5.902;2023-04-12T06:42:42;1.60;;;0.98;;
38465;SDS011;24244;51.950;5.902;2023-04-12T06:45:09;1.17;;;0.60;;
38465;SDS011;24244;51.950;5.902;2023-04-12T06:47:36;1.23;;;0.80;;
38465;SDS011;24244;51.950;5.902;2023-04-12T06:50:08;1.40;;;0.38;;
38465;SDS011;24244;51.950;5.902;2023-04-12T06:52:38;1.02;;;0.60;;
38465;SDS011;24244;51.950;5.902;2023-04-12T06:55:06;1.75;;;0.40;;
38465;SDS011;24244;51.950;5.902;2023-04-12T06:57:34;0.50;;;0.20;;
38465;SDS011;24244;51.950;5.902;2023-04-12T07:00:04;0.80;;;0.40;;
38465;SDS011;24244;51.950;5.902;2023-04-12T07:02:37;0.65;;;0.30;;
38465;SDS011;24244;51.950;5.902;2023-04-12T07:05:09;1.05;;;0.40;;
38465;SDS011;24244;51.950;5.902;2023-04-12T07:07:36;1.27;;;0.50;;
38465;SDS011;24244;51.950;5.902;2023-04-12T07:10:03;2.78;;;0.70;;
38465;SDS011;24244;51.950;5.902;2023-04-12T07:12:32;0.70;;;0.30;;
38465;SDS011;24244;51.950;5.902;2023-04-12T07:14:59;0.95;;;0.30;;
38465;SDS011;24244;51.950;5.902;2023-04-12T07:17:26;1.13;;;0.50;;
38465;SDS011;24244;51.950;5.902;2023-04-12T07:19:53;1.00;;;0.80;;
38465;SDS011;24244;51.950;5.902;2023-04-12T07:22:22;1.38;;;0.57;;
38465;SDS011;24244;51.950;5.902;2023-04-12T07:24:49;1.50;;;0.40;;
38465;SDS011;24244;51.950;5.902;2023-04-12T07:27:18;1.48;;;0.75;;
38465;SDS011;24244;51.950;5.902;2023-04-12T07:29:49;2.05;;;0.85;;
38465;SDS011;24244;51.950;5.902;2023-04-12T07:32:17;1.58;;;0.80;;
38465;SDS011;24244;51.950;5.902;2023-04-12T07:34:44;1.88;;;0.60;;
38465;SDS011;24244;51.950;5.902;2023-04-12T07:37:11;1.45;;;0.90;;
38465;SDS011;24244;51.950;5.902;2023-04-12T07:39:41;2.95;;;1.08;;
38465;SDS011;24244;51.950;5.902;2023-04-12T07:42:08;2.70;;;1.20;;
38465;SDS011;24244;51.950;5.902;2023-04-12T07:44:35;1.63;;;0.80;;
38465;SDS011;24244;51.950;5.902;2023-04-12T07:47:04;2.08;;;0.50;;
38465;SDS011;24244;51.950;5.902;2023-04-12T07:49:32;2.05;;;1.08;;
38465;SDS011;24244;51.950;5.902;2023-04-12T07:52:05;1.02;;;0.60;;
38465;SDS011;24244;51.950;5.902;2023-04-12T07:54:33;2.00;;;0.88;;
38465;SDS011;24244;51.950;5.902;2023-04-12T07:57:03;2.85;;;1.05;;
38465;SDS011;24244;51.950;5.902;2023-04-12T07:59:34;1.73;;;1.10;;
38465;SDS011;24244;51.950;5.902;2023-04-12T08:02:04;1.00;;;0.90;;
38465;SDS011;24244;51.950;5.902;2023-04-12T08:04:33;1.60;;;0.70;;
38465;SDS011;24244;51.950;5.902;2023-04-12T08:07:00;3.90;;;0.70;;
38465;SDS011;24244;51.950;5.902;2023-04-12T08:09:30;1.73;;;0.90;;
38465;SDS011;24244;51.950;5.902;2023-04-12T08:11:57;3.53;;;1.60;;
38465;SDS011;24244;51.950;5.902;2023-04-12T08:14:27;1.52;;;0.90;;
38465;SDS011;24244;51.950;5.902;2023-04-12T08:16:54;3.75;;;1.08;;
38465;SDS011;24244;51.950;5.902;2023-04-12T08:19:25;2.28;;;0.90;;
38465;SDS011;24244;51.950;5.902;2023-04-12T08:21:52;1.52;;;0.63;;
38465;SDS011;24244;51.950;5.902;2023-04-12T08:24:20;2.55;;;0.90;;
38465;SDS011;24244;51.950;5.902;2023-04-12T08:26:50;5.95;;;1.90;;
38465;SDS011;24244;51.950;5.902;2023-04-12T08:29:20;1.77;;;1.10;;
38465;SDS011;24244;51.950;5.902;2023-04-12T08:31:48;3.10;;;0.80;;
38465;SDS011;24244;51.950;5.902;2023-04-12T08:34:15;2.22;;;0.80;;
38465;SDS011;24244;51.950;5.902;2023-04-12T08:36:42;2.25;;;0.85;;
38465;SDS011;24244;51.950;5.902;2023-04-12T08:39:09;2.13;;;1.13;;
38465;SDS011;24244;51.950;5.902;2023-04-12T08:41:39;3.65;;;1.23;;
38465;SDS011;24244;51.950;5.902;2023-04-12T08:44:07;2.25;;;1.33;;
38465;SDS011;24244;51.950;5.902;2023-04-12T08:46:36;4.28;;;1.23;;
38465;SDS011;24244;51.950;5.902;2023-04-12T08:49:04;5.78;;;1.25;;
38465;SDS011;24244;51.950;5.902;2023-04-12T08:51:32;5.05;;;1.30;;
38465;SDS011;24244;51.950;5.902;2023-04-12T08:53:59;4.18;;;0.70;;
38465;SDS011;24244;51.950;5.902;2023-04-12T08:56:27;2.58;;;1.10;;
38465;SDS011;24244;51.950;5.902;2023-04-12T08:58:58;3.03;;;0.75;;
38465;SDS011;24244;51.950;5.902;2023-04-12T09:01:29;2.08;;;1.10;;
38465;SDS011;24244;51.950;5.902;2023-04-12T09:03:56;2.28;;;0.70;;
38465;SDS011;24244;51.950;5.902;2023-04-12T09:06:25;2.80;;;0.70;;
38465;SDS011;24244;51.950;5.902;2023-04-12T09:08:54;3.50;;;1.02;;
38465;SDS011;24244;51.950;5.902;2023-04-12T09:11:25;2.55;;;0.63;;
38465;SDS011;24244;51.950;5.902;2023-04-12T09:13:56;4.07;;;0.82;;
38465;SDS011;24244;51.950;5.902;2023-04-12T09:16:34;2.17;;;0.77;;
38465;SDS011;24244;51.950;5.902;2023-04-12T09:19:02;2.35;;;0.70;;
38465;SDS011;24244;51.950;5.902;2023-04-12T09:21:31;5.57;;;1.05;;
38465;SDS011;24244;51.950;5.902;2023-04-12T09:24:00;4.45;;;0.90;;
38465;SDS011;24244;51.950;5.902;2023-04-12T09:26:29;3.28;;;1.10;;
38465;SDS011;24244;51.950;5.902;2023-04-12T09:28:57;5.15;;;1.10;;
38465;SDS011;24244;51.950;5.902;2023-04-12T09:31:23;3.22;;;1.30;;
38465;SDS011;24244;51.950;5.902;2023-04-12T09:33:52;3.33;;;0.90;;
38465;SDS011;24244;51.950;5.902;2023-04-12T09:36:38;2.67;;;0.98;;
38465;SDS011;24244;51.950;5.902;2023-04-12T09:39:06;3.22;;;0.73;;
38465;SDS011;24244;51.950;5.902;2023-04-12T09:41:33;4.53;;;1.00;;
38465;SDS011;24244;51.950;5.902;2023-04-12T09:44:00;4.90;;;1.58;;
38465;SDS011;24244;51.950;5.902;2023-04-12T09:46:28;3.78;;;1.30;;
38465;SDS011;24244;51.950;5.902;2023-04-12T09:48:56;5.88;;;1.23;;
38465;SDS011;24244;51.950;5.902;2023-04-12T09:51:28;3.03;;;0.63;;
38465;SDS011;24244;51.950;5.902;2023-04-12T09:54:01;4.35;;;0.75;;
38465;SDS011;24244;51.950;5.902;2023-04-12T09:56:29;5.47;;;0.90;;
38465;SDS011;24244;51.950;5.902;2023-04-12T09:59:00;4.82;;;1.40;;
38465;SDS011;24244;51.950;5.902;2023-04-12T10:01:28;5.10;;;0.80;;
38465;SDS011;24244;51.950;5.902;2023-04-12T10:04:01;4.18;;;1.13;;
38465;SDS011;24244;51.950;5.902;2023-04-12T10:06:31;4.50;;;1.30;;
38465;SDS011;24244;51.950;5.902;2023-04-12T10:09:01;5.32;;;1.50;;
38465;SDS011;24244;51.950;5.902;2023-04-12T10:11:29;2.83;;;1.40;;
38465;SDS011;24244;51.950;5.902;2023-04-12T10:14:01;6.95;;;1.80;;
38465;SDS011;24244;51.950;5.902;2023-04-12T10:16:29;3.40;;;1.05;;
38465;SDS011;24244;51.950;5.902;2023-04-12T10:18:56;8.63;;;1.33;;
38465;SDS011;24244;51.950;5.902;2023-04-12T10:21:27;4.95;;;1.92;;
38465;SDS011;24244;51.950;5.902;2023-04-12T10:24:03;5.00;;;1.58;;
38465;SDS011;24244;51.950;5.902;2023-04-12T10:26:32;5.88;;;1.60;;
38465;SDS011;24244;51.950;5.902;2023-04-12T10:31:50;5.00;;;1.33;;
38465;SDS011;24244;51.950;5.902;2023-04-12T10:34:22;3.95;;;1.60;;
38465;SDS011;24244;51.950;5.902;2023-04-12T10:36:50;7.07;;;1.83;;
38465;SDS011;24244;51.950;5.902;2023-04-12T10:42:20;5.57;;;1.52;;
38465;SDS011;24244;51.950;5.902;2023-04-12T10:44:49;3.92;;;1.58;;
38465;SDS011;24244;51.950;5.902;2023-04-12T10:50:24;4.95;;;1.70;;
38465;SDS011;24244;51.950;5.902;2023-04-12T10:55:50;4.40;;;1.10;;
38465;SDS011;24244;51.950;5.902;2023-04-12T11:01:26;2.85;;;1.10;;
38465;SDS011;24244;51.950;5.902;2023-04-12T11:04:08;8.52;;;2.33;;
38465;SDS011;24244;51.950;5.902;2023-04-12T11:09:36;6.55;;;1.67;;
38465;SDS011;24244;51.950;5.902;2023-04-12T11:12:15;5.78;;;1.50;;
38465;SDS011;24244;51.950;5.902;2023-04-12T11:14:43;5.18;;;1.30;;
38465;SDS011;24244;51.950;5.902;2023-04-12T11:17:24;4.20;;;1.52;;
38465;SDS011;24244;51.950;5.902;2023-04-12T11:19:56;4.10;;;1.77;;
38465;SDS011;24244;51.950;5.902;2023-04-12T11:22:26;5.85;;;1.95;;
38465;SDS011;24244;51.950;5.902;2023-04-12T11:24:55;3.97;;;1.48;;
38465;SDS011;24244;51.950;5.902;2023-04-12T11:27:26;4.20;;;1.33;;
38465;SDS011;24244;51.950;5.902;2023-04-12T11:29:55;2.30;;;0.82;;
38465;SDS011;24244;51.950;5.902;2023-04-12T11:32:26;4.78;;;1.38;;
38465;SDS011;24244;51.950;5.902;2023-04-12T11:34:57;3.63;;;1.40;;
38465;SDS011;24244;51.950;5.902;2023-04-12T11:37:27;4.93;;;1.58;;
38465;SDS011;24244;51.950;5.902;2023-04-12T11:42:27;5.88;;;1.70;;
38465;SDS011;24244;51.950;5.902;2023-04-12T11:44:55;7.47;;;1.58;;
38465;SDS011;24244;51.950;5.902;2023-04-12T11:47:31;6.53;;;1.20;;
38465;SDS011;24244;51.950;5.902;2023-04-12T11:50:00;6.13;;;1.67;;
38465;SDS011;24244;51.950;5.902;2023-04-12T11:52:28;7.72;;;1.80;;
38465;SDS011;24244;51.950;5.902;2023-04-12T11:54:59;8.23;;;1.50;;
38465;SDS011;24244;51.950;5.902;2023-04-12T11:57:34;4.80;;;1.25;;
38465;SDS011;24244;51.950;5.902;2023-04-12T12:00:03;6.07;;;1.10;;
38465;SDS011;24244;51.950;5.902;2023-04-12T12:02:37;7.18;;;1.45;;
38465;SDS011;24244;51.950;5.902;2023-04-12T12:05:20;4.72;;;1.60;;
38465;SDS011;24244;51.950;5.902;2023-04-12T12:08:00;6.30;;;1.50;;
38465;SDS011;24244;51.950;5.902;2023-04-12T12:10:31;4.65;;;1.00;;
38465;SDS011;24244;51.950;5.902;2023-04-12T12:13:09;4.65;;;1.05;;
38465;SDS011;24244;51.950;5.902;2023-04-12T12:15:44;5.93;;;1.10;;
38465;SDS011;24244;51.950;5.902;2023-04-12T12:18:13;5.38;;;1.40;;
38465;SDS011;24244;51.950;5.902;2023-04-12T12:20:40;8.27;;;1.50;;
38465;SDS011;24244;51.950;5.902;2023-04-12T12:23:08;4.38;;;1.27;;
38465;SDS011;24244;51.950;5.902;2023-04-12T12:25:36;4.18;;;1.20;;
38465;SDS011;24244;51.950;5.902;2023-04-12T12:28:05;5.00;;;1.33;;
38465;SDS011;24244;51.950;5.902;2023-04-12T12:30:43;3.13;;;0.63;;
38465;SDS011;24244;51.950;5.902;2023-04-12T12:33:10;5.30;;;1.15;;
38465;SDS011;24244;51.950;5.902;2023-04-12T12:35:39;6.18;;;0.95;;
38465;SDS011;24244;51.950;5.902;2023-04-12T12:38:06;3.13;;;1.00;;
38465;SDS011;24244;51.950;5.902;2023-04-12T12:40:33;3.35;;;1.45;;
38465;SDS011;24244;51.950;5.902;2023-04-12T12:43:01;2.42;;;0.93;;
38465;SDS011;24244;51.950;5.902;2023-04-12T12:45:30;3.15;;;1.17;;
38465;SDS011;24244;51.950;5.902;2023-04-12T12:47:59;5.18;;;1.38;;
38465;SDS011;24244;51.950;5.902;2023-04-12T12:50:29;4.20;;;1.42;;
38465;SDS011;24244;51.950;5.902;2023-04-12T12:53:01;4.55;;;0.50;;
38465;SDS011;24244;51.950;5.902;2023-04-12T12:55:29;3.65;;;0.98;;
38465;SDS011;24244;51.950;5.902;2023-04-12T12:57:57;2.03;;;0.45;;
38465;SDS011;24244;51.950;5.902;2023-04-12T13:00:34;2.92;;;1.02;;
38465;SDS011;24244;51.950;5.902;2023-04-12T13:03:02;3.53;;;0.90;;
38465;SDS011;24244;51.950;5.902;2023-04-12T13:05:30;4.65;;;0.93;;
38465;SDS011;24244;51.950;5.902;2023-04-12T13:07:59;4.47;;;0.65;;
38465;SDS011;24244;51.950;5.902;2023-04-12T13:10:27;2.55;;;0.50;;
38465;SDS011;24244;51.950;5.902;2023-04-12T13:12:54;1.70;;;0.55;;
38465;SDS011;24244;51.950;5.902;2023-04-12T13:15:21;2.08;;;0.70;;
38465;SDS011;24244;51.950;5.902;2023-04-12T13:17:52;4.68;;;0.40;;
38465;SDS011;24244;51.950;5.902;2023-04-12T13:20:19;2.65;;;0.30;;
38465;SDS011;24244;51.950;5.902;2023-04-12T13:22:47;2.47;;;0.75;;
38465;SDS011;24244;51.950;5.902;2023-04-12T13:25:15;3.22;;;0.77;;
38465;SDS011;24244;51.950;5.902;2023-04-12T13:27:42;1.58;;;0.50;;
38465;SDS011;24244;51.950;5.902;2023-04-12T13:30:14;4.15;;;1.02;;
38465;SDS011;24244;51.950;5.902;2023-04-12T13:32:41;1.73;;;0.63;;
38465;SDS011;24244;51.950;5.902;2023-04-12T13:35:11;3.05;;;0.85;;
38465;SDS011;24244;51.950;5.902;2023-04-12T13:37:41;2.40;;;0.70;;
38465;SDS011;24244;51.950;5.902;2023-04-12T13:40:09;4.75;;;0.73;;
38465;SDS011;24244;51.950;5.902;2023-04-12T13:42:37;3.55;;;0.77;;
38465;SDS011;24244;51.950;5.902;2023-04-12T13:45:08;2.42;;;0.50;;
38465;SDS011;24244;51.950;5.902;2023-04-12T13:47:37;2.75;;;0.47;;
38465;SDS011;24244;51.950;5.902;2023-04-12T13:50:05;3.60;;;0.60;;
38465;SDS011;24244;51.950;5.902;2023-04-12T13:52:34;5.38;;;0.68;;
38465;SDS011;24244;51.950;5.902;2023-04-12T13:55:01;2.70;;;0.60;;
38465;SDS011;24244;51.950;5.902;2023-04-12T13:57:30;4.93;;;0.88;;
38465;SDS011;24244;51.950;5.902;2023-04-12T13:59:57;3.75;;;0.40;;
38465;SDS011;24244;51.950;5.902;2023-04-12T14:02:23;3.70;;;0.70;;
38465;SDS011;24244;51.950;5.902;2023-04-12T14:04:53;3.20;;;0.63;;
38465;SDS011;24244;51.950;5.902;2023-04-12T14:07:22;2.63;;;0.30;;
38465;SDS011;24244;51.950;5.902;2023-04-12T14:09:51;3.70;;;1.00;;
38465;SDS011;24244;51.950;5.902;2023-04-12T14:12:21;2.40;;;0.35;;
38465;SDS011;24244;51.950;5.902;2023-04-12T14:14:48;5.15;;;0.57;;
38465;SDS011;24244;51.950;5.902;2023-04-12T14:17:15;4.30;;;0.38;;
38465;SDS011;24244;51.950;5.902;2023-04-12T14:19:43;4.00;;;0.80;;
38465;SDS011;24244;51.950;5.902;2023-04-12T14:22:12;2.47;;;0.40;;
38465;SDS011;24244;51.950;5.902;2023-04-12T14:24:39;2.17;;;0.75;;
38465;SDS011;24244;51.950;5.902;2023-04-12T14:27:10;1.67;;;0.40;;
38465;SDS011;24244;51.950;5.902;2023-04-12T14:29:41;2.25;;;0.38;;
38465;SDS011;24244;51.950;5.902;2023-04-12T14:32:11;4.28;;;0.88;;
38465;SDS011;24244;51.950;5.902;2023-04-12T14:34:38;2.88;;;0.80;;
38465;SDS011;24244;51.950;5.902;2023-04-12T14:37:05;1.88;;;0.57;;
38465;SDS011;24244;51.950;5.902;2023-04-12T14:39:34;3.03;;;0.88;;
38465;SDS011;24244;51.950;5.902;2023-04-12T14:42:04;1.70;;;0.50;;
38465;SDS011;24244;51.950;5.902;2023-04-12T14:44:51;2.45;;;0.40;;
38465;SDS011;24244;51.950;5.902;2023-04-12T14:47:18;1.63;;;0.32;;
38465;SDS011;24244;51.950;5.902;2023-04-12T14:49:46;3.08;;;0.45;;
38465;SDS011;24244;51.950;5.902;2023-04-12T14:52:12;1.60;;;0.70;;
38465;SDS011;24244;51.950;5.902;2023-04-12T14:54:39;2.58;;;0.75;;
38465;SDS011;24244;51.950;5.902;2023-04-12T14:57:08;1.65;;;0.20;;
38465;SDS011;24244;51.950;5.902;2023-04-12T14:59:36;2.20;;;0.60;;
38465;SDS011;24244;51.950;5.902;2023-04-12T15:02:12;2.03;;;0.45;;
38465;SDS011;24244;51.950;5.902;2023-04-12T15:04:39;1.52;;;0.80;;
38465;SDS011;24244;51.950;5.902;2023-04-12T15:07:09;2.03;;;0.47;;
38465;SDS011;24244;51.950;5.902;2023-04-12T15:09:41;2.83;;;0.88;;
38465;SDS011;24244;51.950;5.902;2023-04-12T15:12:11;1.75;;;0.50;;
38465;SDS011;24244;51.950;5.902;2023-04-12T15:14:39;3.95;;;0.45;;
38465;SDS011;24244;51.950;5.902;2023-04-12T15:17:09;1.58;;;0.30;;
38465;SDS011;24244;51.950;5.902;2023-04-12T15:19:41;2.42;;;0.80;;